Time;durP1;ratioP1;P1;durP2;ratioP2;P2;SDS_P1;SDS_P2;PMS_P1;PMS_P2;Temp;Humidity;BMP_temperature;BMP_pressure;BME280_temperature;BME280_humidity;BME280_pressure;Samples;Min_cycle;Max_cycle;Signal;HPM_P1;HPM_P2
2022/03/31 00:01:24;;;;;;;9.32;5.10;;;;;;;5.50;76.18;99958.19;5239829;28;20065;-65
2022/03/31 00:03:56;;;;;;;8.23;5.10;;;;;;;5.52;76.40;99958.09;5237454;28;21440;-65
2022/03/31 00:06:27;;;;;;;6.57;4.85;;;;;;;5.53;75.24;99957.16;5240137;28;20024;-65
2022/03/31 00:08:58;;;;;;;7.68;5.18;;;;;;;5.51;74.65;99951.97;5238551;28;20090;-65
2022/03/31 00:11:30;;;;;;;8.00;4.70;;;;;;;5.49;74.26;99953.88;5239951;28;20109;-65
2022/03/31 00:14:01;;;;;;;6.50;4.65;;;;;;;5.45;75.70;99958.53;5237760;28;20047;-65
2022/03/31 00:16:32;;;;;;;7.40;5.35;;;;;;;5.47;76.81;99956.63;5240923;28;20041;-65
2022/03/31 00:19:04;;;;;;;7.10;5.18;;;;;;;5.49;76.20;99962.66;5238084;28;20127;-65
2022/03/31 00:22:28;;;;;;;7.35;5.13;;;;;;;5.49;75.01;99961.81;5238736;28;20037;-65
2022/03/31 00:24:59;;;;;;;9.20;5.32;;;;;;;5.39;74.53;99971.31;5237608;28;20120;-65
2022/03/31 00:27:31;;;;;;;7.30;5.00;;;;;;;5.34;74.85;99968.19;5239560;28;20502;-65
2022/03/31 00:30:04;;;;;;;8.20;5.35;;;;;;;5.34;75.18;99958.44;5238344;28;20065;-65
2022/03/31 00:32:37;;;;;;;7.13;5.40;;;;;;;5.34;75.26;99961.06;5244308;28;20127;-65
2022/03/31 00:35:12;;;;;;;7.75;5.88;;;;;;;5.31;76.13;99958.63;5249469;28;20028;-65
2022/03/31 00:37:46;;;;;;;10.18;5.65;;;;;;;5.27;75.29;99958.03;5249696;28;20036;-65
2022/03/31 00:40:20;;;;;;;9.50;5.60;;;;;;;5.26;75.66;99956.31;5249435;28;20103;-65
2022/03/31 00:42:54;;;;;;;8.60;5.60;;;;;;;5.25;75.69;99959.06;5237366;28;20056;-65
2022/03/31 00:45:46;;;;;;;10.57;6.20;;;;;;;5.24;75.58;99952.09;5236894;28;20395;-65
2022/03/31 00:48:19;;;;;;;9.18;6.28;;;;;;;5.24;75.22;99949.44;5238770;28;20122;-65
2022/03/31 00:50:50;;;;;;;10.80;6.82;;;;;;;5.24;75.52;99958.22;5239372;28;20171;-65
2022/03/31 00:53:22;;;;;;;10.10;6.97;;;;;;;5.21;75.42;99953.13;5238458;28;20040;-65
2022/03/31 00:55:54;;;;;;;10.93;7.00;;;;;;;5.16;75.85;99955.25;5234543;28;20041;-65
2022/03/31 00:58:25;;;;;;;10.15;6.93;;;;;;;5.17;76.03;99956.94;5237941;28;20037;-65
2022/03/31 01:00:56;;;;;;;10.82;7.25;;;;;;;5.17;76.13;99956.94;5238912;28;20037;-65
2022/03/31 01:03:29;;;;;;;10.57;7.43;;;;;;;5.23;76.64;99953.03;5241203;28;20032;-65
2022/03/31 01:06:00;;;;;;;11.15;7.68;;;;;;;5.20;76.65;99946.16;5241905;28;20033;-65
2022/03/31 01:08:32;;;;;;;11.38;7.65;;;;;;;5.20;76.87;99951.44;5241245;28;20039;-65
2022/03/31 01:11:04;;;;;;;12.80;7.45;;;;;;;5.13;77.14;99936.13;5250577;28;20037;-65
2022/03/31 01:13:35;;;;;;;11.02;7.53;;;;;;;5.18;76.97;99942.78;5239212;28;20029;-65
2022/03/31 01:16:07;;;;;;;11.48;7.43;;;;;;;5.16;77.85;99939.41;5237053;28;20041;-65
2022/03/31 01:18:38;;;;;;;13.18;8.18;;;;;;;5.10;77.38;99937.16;5248424;28;20493;-65
2022/03/31 01:21:09;;;;;;;14.77;8.43;;;;;;;5.12;77.62;99930.00;5236174;28;20025;-65
2022/03/31 01:23:41;;;;;;;12.07;8.13;;;;;;;5.17;78.25;99929.66;5237725;28;20483;-65
2022/03/31 01:26:12;;;;;;;12.32;8.05;;;;;;;5.17;77.52;99921.72;5237977;28;20112;-65
2022/03/31 01:28:44;;;;;;;11.80;8.00;;;;;;;5.14;77.66;99925.44;5249911;28;20044;-65
2022/03/31 01:31:15;;;;;;;10.82;7.38;;;;;;;5.09;77.95;99927.53;5244994;28;20028;-65
2022/03/31 01:33:47;;;;;;;9.43;6.95;;;;;;;5.14;77.87;99925.44;5246320;28;20029;-65
2022/03/31 01:36:19;;;;;;;11.27;7.88;;;;;;;5.07;78.09;99921.50;5246516;28;20551;-65
2022/03/31 01:38:50;;;;;;;11.48;7.60;;;;;;;5.03;77.95;99925.31;5248595;28;20120;-65
2022/03/31 01:41:22;;;;;;;11.73;7.68;;;;;;;5.03;78.36;99923.50;5245712;28;20027;-65
2022/03/31 01:43:54;;;;;;;11.95;7.95;;;;;;;4.97;78.91;99918.66;5243821;28;20486;-65
2022/03/31 01:46:25;;;;;;;12.60;9.18;;;;;;;4.95;79.85;99914.41;5242425;28;20055;-65
2022/03/31 01:48:57;;;;;;;12.65;8.60;;;;;;;4.94;80.34;99910.09;5247955;28;21168;-65
2022/03/31 01:51:28;;;;;;;11.95;8.70;;;;;;;4.86;79.51;99903.50;5240831;28;20112;-65
2022/03/31 01:54:00;;;;;;;13.02;8.55;;;;;;;4.93;80.29;99911.03;5245997;28;20035;-65
2022/03/31 01:56:31;;;;;;;12.57;8.45;;;;;;;4.81;80.36;99905.63;5244354;28;20056;-65
2022/03/31 01:59:02;;;;;;;14.70;9.00;;;;;;;4.71;81.09;99901.91;5241022;28;20037;-65
2022/03/31 02:01:34;;;;;;;14.07;9.48;;;;;;;4.74;81.40;99906.13;5236533;28;20170;-65
2022/03/31 02:04:05;;;;;;;16.23;9.95;;;;;;;4.66;81.91;99904.88;5245885;28;20052;-65
2022/03/31 02:06:37;;;;;;;16.17;10.68;;;;;;;4.67;83.24;99903.06;5239018;28;20078;-65
2022/03/31 02:09:08;;;;;;;16.35;10.10;;;;;;;4.57;83.09;99902.84;5241243;28;20029;-65
2022/03/31 02:11:40;;;;;;;14.45;9.82;;;;;;;4.57;83.41;99899.34;5241047;28;20021;-65
2022/03/31 02:14:14;;;;;;;20.25;11.38;;;;;;;4.58;84.77;99888.66;5244090;28;20029;-65
2022/03/31 02:16:46;;;;;;;16.17;10.90;;;;;;;4.49;83.77;99887.50;5237724;28;20407;-65
2022/03/31 02:19:18;;;;;;;17.20;10.98;;;;;;;4.50;84.39;99883.06;5238557;28;20028;-65
2022/03/31 02:21:49;;;;;;;17.33;11.18;;;;;;;4.46;84.35;99890.34;5242916;28;20657;-65
2022/03/31 02:24:21;;;;;;;15.90;10.70;;;;;;;4.47;84.44;99881.47;5245485;28;20108;-65
2022/03/31 02:26:52;;;;;;;18.70;12.20;;;;;;;4.38;84.96;99887.38;5245231;28;20095;-65
2022/03/31 02:29:24;;;;;;;17.80;11.32;;;;;;;4.40;85.75;99889.91;5239902;28;20075;-65
2022/03/31 02:31:56;;;;;;;16.45;10.73;;;;;;;4.34;85.65;99890.31;5244801;28;20518;-65
2022/03/31 02:34:28;;;;;;;16.52;11.05;;;;;;;4.30;85.65;99882.59;5243242;28;20103;-65
2022/03/31 02:37:00;;;;;;;16.95;10.35;;;;;;;4.29;86.34;99891.44;5237853;28;20045;-65
2022/03/31 02:39:31;;;;;;;15.15;9.25;;;;;;;4.30;85.93;99881.75;5238412;28;20025;-65
2022/03/31 02:42:03;;;;;;;16.30;10.35;;;;;;;4.22;86.27;99873.47;5241887;28;20059;-65
2022/03/31 02:44:34;;;;;;;16.88;10.55;;;;;;;4.28;86.42;99883.66;5237445;28;20060;-65
2022/03/31 02:47:06;;;;;;;16.60;10.70;;;;;;;4.27;87.09;99881.94;5241807;28;20674;-65
2022/03/31 02:49:38;;;;;;;14.43;9.10;;;;;;;4.22;88.11;99882.25;5238660;28;20033;-65
2022/03/31 02:52:09;;;;;;;12.73;8.85;;;;;;;4.18;88.55;99879.91;5230818;28;20060;-65
2022/03/31 02:57:30;;;;;;;13.93;9.27;;;;;;;4.07;90.56;99870.06;5242624;28;20068;-65
2022/03/31 03:00:03;;;;;;;15.02;8.60;;;;;;;3.97;91.31;99874.22;5230192;28;20447;-65
2022/03/31 03:02:35;;;;;;;13.35;9.43;;;;;;;3.99;91.34;99867.06;5230865;28;20037;-65
2022/03/31 03:05:07;;;;;;;13.55;9.40;;;;;;;4.00;92.14;99864.31;5244598;28;20029;-65
2022/03/31 03:07:38;;;;;;;11.32;8.95;;;;;;;3.91;92.49;99865.78;5230832;28;20029;-65
2022/03/31 03:10:10;;;;;;;13.25;9.07;;;;;;;3.80;92.99;99864.78;5224142;28;20505;-65
2022/03/31 03:12:42;;;;;;;11.88;7.95;;;;;;;3.73;92.73;99867.78;5235189;28;20061;-65
2022/03/31 03:15:13;;;;;;;13.02;7.60;;;;;;;3.71;92.92;99858.28;5232215;28;20076;-65
2022/03/31 03:17:47;;;;;;;9.18;6.80;;;;;;;3.66;92.79;99853.31;5227239;28;20033;-65
2022/03/31 03:20:18;;;;;;;8.45;6.25;;;;;;;3.54;92.84;99860.19;5236868;28;20175;-65
2022/03/31 03:22:51;;;;;;;10.75;7.18;;;;;;;3.49;93.47;99859.66;5232667;28;20037;-65
2022/03/31 03:25:23;;;;;;;9.07;6.75;;;;;;;3.43;93.45;99856.53;5244601;28;20031;-65
2022/03/31 03:27:55;;;;;;;9.95;6.85;;;;;;;3.41;94.17;99863.69;5231423;28;20720;-65
2022/03/31 03:30:26;;;;;;;10.07;6.95;;;;;;;3.42;94.57;99862.78;5226567;28;20044;-65
2022/03/31 03:32:57;;;;;;;8.27;6.45;;;;;;;3.28;94.94;99861.84;5239889;28;20103;-65
2022/03/31 03:35:29;;;;;;;8.77;6.07;;;;;;;3.30;94.25;99853.84;5249519;28;20119;-65
2022/03/31 03:38:00;;;;;;;6.38;4.88;;;;;;;3.06;95.78;99853.56;5244900;28;20542;-65
2022/03/31 03:40:31;;;;;;;6.93;5.07;;;;;;;3.04;96.12;99852.81;5237489;28;20191;-65
2022/03/31 03:43:03;;;;;;;7.10;4.57;;;;;;;2.99;96.00;99854.88;5238068;28;20032;-65
2022/03/31 03:45:34;;;;;;;6.38;4.80;;;;;;;2.74;96.44;99858.97;5236477;28;20040;-65
2022/03/31 03:48:11;;;;;;;4.95;3.83;;;;;;;2.71;96.31;99856.56;5247595;28;20064;-65
2022/03/31 03:50:42;;;;;;;4.90;4.03;;;;;;;2.57;96.90;99854.75;5239177;28;20028;-65
2022/03/31 03:53:14;;;;;;;4.63;3.58;;;;;;;2.61;96.10;99858.88;5249693;28;20032;-65
2022/03/31 03:55:46;;;;;;;5.43;3.78;;;;;;;2.48;96.83;99864.03;5234761;28;20029;-65
2022/03/31 03:58:18;;;;;;;5.60;4.07;;;;;;;2.48;96.68;99868.44;5239789;28;20150;-65
2022/03/31 04:00:49;;;;;;;5.60;3.90;;;;;;;2.38;97.31;99864.63;5237329;28;20766;-65
2022/03/31 04:03:21;;;;;;;5.53;4.10;;;;;;;2.31;97.43;99864.16;5237048;28;20025;-65
2022/03/31 04:05:52;;;;;;;5.95;3.80;;;;;;;2.32;97.49;99865.84;5247472;28;20475;-65
2022/03/31 04:08:23;;;;;;;7.25;4.50;;;;;;;2.26;98.21;99871.47;5251995;28;20048;-65
2022/03/31 04:10:55;;;;;;;5.22;3.90;;;;;;;2.24;98.43;99868.06;5242945;28;20696;-65
2022/03/31 04:13:26;;;;;;;6.20;4.63;;;;;;;2.12;98.92;99867.84;5242216;28;20037;-65
2022/03/31 04:15:57;;;;;;;7.38;4.90;;;;;;;2.14;100.00;99868.59;5234492;28;20083;-65
2022/03/31 04:18:29;;;;;;;7.45;5.10;;;;;;;2.06;100.00;99865.56;5242699;28;20025;-65
2022/03/31 04:21:02;;;;;;;7.75;5.00;;;;;;;1.99;100.00;99866.84;5232301;28;20127;-65
2022/03/31 04:23:34;;;;;;;6.40;4.90;;;;;;;1.94;100.00;99868.91;5236796;28;20037;-65
2022/03/31 04:26:05;;;;;;;8.30;4.95;;;;;;;1.95;100.00;99867.97;5233516;28;20086;-65
2022/03/31 04:28:37;;;;;;;6.47;4.85;;;;;;;1.91;100.00;99869.06;5237251;28;20539;-65
2022/03/31 04:31:08;;;;;;;5.53;4.20;;;;;;;1.68;100.00;99870.34;5229290;28;20126;-65
2022/03/31 04:33:39;;;;;;;6.65;4.20;;;;;;;1.60;100.00;99872.56;5236271;28;20573;-65
2022/03/31 04:36:10;;;;;;;6.25;4.43;;;;;;;1.55;100.00;99871.03;5239634;28;20036;-65
2022/03/31 04:38:42;;;;;;;6.28;4.43;;;;;;;1.54;100.00;99873.75;5233829;28;20057;-65
2022/03/31 04:41:13;;;;;;;5.38;4.18;;;;;;;1.39;100.00;99866.69;5243776;28;20060;-65
2022/03/31 04:43:44;;;;;;;6.55;4.15;;;;;;;1.42;100.00;99870.03;5240408;28;20044;-65
2022/03/31 04:46:16;;;;;;;5.68;4.38;;;;;;;1.39;100.00;99867.53;5239680;28;20025;-65
2022/03/31 04:48:47;;;;;;;5.07;3.80;;;;;;;1.37;100.00;99872.03;5240331;28;20039;-65
2022/03/31 04:51:18;;;;;;;6.32;3.90;;;;;;;1.30;100.00;99871.50;5237664;28;20706;-66
2022/03/31 04:53:50;;;;;;;6.68;4.30;;;;;;;1.31;100.00;99877.63;5240731;28;20673;-66
2022/03/31 04:56:21;;;;;;;5.68;4.07;;;;;;;1.24;100.00;99876.25;5236138;28;20060;-66
2022/03/31 04:58:52;;;;;;;5.25;3.88;;;;;;;1.29;100.00;99877.72;5237381;28;20033;-65
2022/03/31 05:01:24;;;;;;;6.40;3.90;;;;;;;1.29;100.00;99875.06;5232992;28;20309;-67
2022/03/31 05:03:55;;;;;;;5.30;4.20;;;;;;;1.23;100.00;99877.16;5238459;28;20528;-66
2022/03/31 05:06:26;;;;;;;5.50;4.15;;;;;;;1.21;100.00;99885.16;5234800;28;20104;-66
2022/03/31 05:08:58;;;;;;;5.22;3.90;;;;;;;1.17;100.00;99881.00;5240709;28;20029;-66
2022/03/31 05:11:29;;;;;;;6.00;4.13;;;;;;;1.15;100.00;99878.44;5236994;28;20066;-66
2022/03/31 05:14:01;;;;;;;6.57;4.57;;;;;;;1.22;100.00;99871.06;5235782;28;20056;-66
2022/03/31 05:16:32;;;;;;;5.80;4.43;;;;;;;1.20;100.00;99874.72;5235200;28;20558;-66
2022/03/31 05:19:03;;;;;;;5.75;3.85;;;;;;;1.06;100.00;99880.72;5241665;28;20032;-66
2022/03/31 05:21:34;;;;;;;6.82;4.35;;;;;;;1.01;100.00;99882.72;5236478;28;20475;-66
2022/03/31 05:24:06;;;;;;;8.77;4.55;;;;;;;0.92;100.00;99884.03;5239954;28;20045;-66
2022/03/31 05:26:37;;;;;;;7.20;4.60;;;;;;;0.92;100.00;99879.66;5237691;28;21851;-66
2022/03/31 05:29:09;;;;;;;6.30;4.13;;;;;;;0.82;100.00;99886.28;5235287;28;20033;-67
2022/03/31 05:31:40;;;;;;;5.97;3.83;;;;;;;0.63;100.00;99882.91;5239610;28;20025;-66
2022/03/31 05:34:12;;;;;;;5.75;3.70;;;;;;;0.47;100.00;99880.25;5237482;28;20360;-66
2022/03/31 05:36:43;;;;;;;5.20;3.80;;;;;;;0.35;100.00;99889.56;5236270;28;20396;-66
2022/03/31 05:39:14;;;;;;;5.85;4.07;;;;;;;0.30;100.00;99891.56;5239982;28;20037;-66
2022/03/31 05:41:45;;;;;;;5.72;3.80;;;;;;;0.24;100.00;99886.63;5237790;28;20116;-66
2022/03/31 05:44:17;;;;;;;6.20;4.03;;;;;;;0.17;100.00;99884.31;5238663;28;20037;-66
2022/03/31 05:46:49;;;;;;;6.50;4.40;;;;;;;0.13;100.00;99880.13;5232335;28;20502;-66
2022/03/31 05:49:20;;;;;;;6.18;4.32;;;;;;;0.11;100.00;99900.31;5238641;28;20024;-66
2022/03/31 05:51:51;;;;;;;7.20;4.57;;;;;;;0.01;100.00;99900.88;5231875;28;21144;-66
2022/03/31 05:54:23;;;;;;;6.53;4.60;;;;;;;-0.07;100.00;99891.59;5239295;28;20055;-66
2022/03/31 05:56:54;;;;;;;8.07;4.82;;;;;;;-0.05;100.00;99889.75;5234909;28;20047;-66
2022/03/31 05:59:25;;;;;;;7.00;4.60;;;;;;;-0.09;100.00;99892.59;5238474;28;20029;-67
2022/03/31 06:01:57;;;;;;;6.88;4.57;;;;;;;-0.11;100.00;99883.94;5237343;28;20036;-66
2022/03/31 06:04:28;;;;;;;7.18;4.45;;;;;;;-0.06;100.00;99877.56;5238332;28;20028;-66
2022/03/31 06:07:00;;;;;;;7.55;4.82;;;;;;;-0.06;100.00;99882.81;5236729;28;21550;-66
2022/03/31 06:09:32;;;;;;;8.30;5.13;;;;;;;-0.01;100.00;99874.72;5244235;28;20029;-66
2022/03/31 06:12:04;;;;;;;6.78;4.20;;;;;;;-0.03;100.00;99880.03;5239064;28;20033;-66
2022/03/31 06:14:39;;;;;;;7.35;5.13;;;;;;;0.04;100.00;99884.97;5232539;28;20048;-65
2022/03/31 06:17:12;;;;;;;7.28;4.85;;;;;;;0.08;100.00;99883.91;5241535;28;20178;-66
2022/03/31 06:19:43;;;;;;;7.32;5.00;;;;;;;0.09;100.00;99880.34;5241266;28;20353;-66
2022/03/31 06:22:14;;;;;;;7.38;4.60;;;;;;;0.14;100.00;99881.00;5238044;28;20032;-66
2022/03/31 06:24:45;;;;;;;7.50;4.78;;;;;;;0.17;100.00;99881.69;5237296;28;20434;-66
2022/03/31 06:27:17;;;;;;;7.70;5.03;;;;;;;0.32;100.00;99887.09;5243908;28;20681;-66
2022/03/31 06:29:49;;;;;;;9.52;5.20;;;;;;;0.30;100.00;99887.16;5240641;28;20032;-66
2022/03/31 06:32:21;;;;;;;7.38;4.80;;;;;;;0.33;100.00;99894.06;5242143;28;20024;-65
2022/03/31 06:34:53;;;;;;;7.38;4.97;;;;;;;0.36;100.00;99896.50;5242119;28;20536;-65
2022/03/31 06:37:24;;;;;;;8.00;5.18;;;;;;;0.37;100.00;99885.09;5255380;28;20986;-65
2022/03/31 06:39:56;;;;;;;8.23;5.45;;;;;;;0.33;100.00;99896.69;5232892;28;20033;-66
2022/03/31 06:42:27;;;;;;;9.73;6.25;;;;;;;0.35;100.00;99902.69;5232609;28;20028;-65
2022/03/31 06:44:58;;;;;;;9.77;6.00;;;;;;;0.39;100.00;99897.22;5226739;28;20068;-65
2022/03/31 06:47:30;;;;;;;9.88;6.35;;;;;;;0.39;100.00;99899.00;5235244;28;20569;-65
2022/03/31 06:50:01;;;;;;;10.73;6.93;;;;;;;0.47;100.00;99883.69;5236477;28;20395;-65
2022/03/31 06:52:33;;;;;;;9.75;6.55;;;;;;;0.48;100.00;99900.28;5245604;28;20087;-65
2022/03/31 06:55:05;;;;;;;11.77;6.80;;;;;;;0.47;100.00;99893.34;5245909;28;20056;-65
2022/03/31 06:57:37;;;;;;;9.05;6.70;;;;;;;0.49;100.00;99904.63;5248046;28;20041;-66
2022/03/31 07:00:09;;;;;;;10.00;7.43;;;;;;;0.48;100.00;99898.53;5249914;28;20041;-65
2022/03/31 07:02:41;;;;;;;9.75;7.05;;;;;;;0.57;100.00;99895.41;5248130;28;20076;-65
2022/03/31 07:05:12;;;;;;;10.95;7.78;;;;;;;0.61;100.00;99897.91;5242926;28;20029;-65
2022/03/31 07:07:43;;;;;;;11.20;7.85;;;;;;;0.62;100.00;99897.84;5246242;28;20499;-65
2022/03/31 07:10:15;;;;;;;11.30;8.05;;;;;;;0.66;100.00;99885.41;5247173;28;20045;-66
2022/03/31 07:12:46;;;;;;;11.15;7.80;;;;;;;0.68;100.00;99884.38;5248369;28;20516;-65
2022/03/31 07:15:19;;;;;;;10.40;6.95;;;;;;;0.71;100.00;99893.88;5242506;28;20083;-66
2022/03/31 07:17:50;;;;;;;10.73;7.55;;;;;;;0.75;100.00;99893.66;5247590;28;20078;-65
2022/03/31 07:20:22;;;;;;;11.15;7.45;;;;;;;0.78;100.00;99890.00;5250699;28;20427;-66
2022/03/31 07:22:54;;;;;;;10.23;7.38;;;;;;;0.74;100.00;99884.06;5253615;28;20028;-65
2022/03/31 07:25:26;;;;;;;9.82;7.30;;;;;;;0.76;100.00;99892.72;5250432;28;20031;-65
2022/03/31 07:27:58;;;;;;;9.77;7.15;;;;;;;0.84;100.00;99884.44;5247172;28;20108;-65
2022/03/31 07:30:29;;;;;;;11.82;7.80;;;;;;;0.83;100.00;99890.63;5246569;28;20037;-63
2022/03/31 07:33:03;;;;;;;10.27;7.45;;;;;;;0.82;100.00;99886.28;5253771;28;20143;-68
2022/03/31 07:35:39;;;;;;;9.77;7.25;;;;;;;0.90;100.00;99891.16;5251713;28;20378;-66
2022/03/31 07:38:11;;;;;;;9.95;7.30;;;;;;;0.87;100.00;99886.91;5252245;28;20029;-65
2022/03/31 07:40:43;;;;;;;9.82;7.10;;;;;;;0.93;100.00;99888.38;5246036;28;20048;-65
2022/03/31 07:43:14;;;;;;;10.93;7.47;;;;;;;0.97;100.00;99895.16;5248660;28;20082;-66
2022/03/31 07:45:46;;;;;;;10.20;7.95;;;;;;;0.94;100.00;99901.44;5249122;28;20033;-65
2022/03/31 07:48:18;;;;;;;11.52;8.02;;;;;;;0.97;100.00;99892.53;5249808;28;20025;-66
2022/03/31 07:50:50;;;;;;;12.32;7.57;;;;;;;1.05;100.00;99884.25;5245285;28;20039;-66
2022/03/31 07:53:21;;;;;;;10.95;7.80;;;;;;;1.08;100.00;99889.38;5249763;28;20043;-65
2022/03/31 07:55:54;;;;;;;10.65;7.80;;;;;;;1.10;100.00;99890.13;5247300;28;20041;-65
2022/03/31 07:58:25;;;;;;;10.82;7.75;;;;;;;1.14;100.00;99891.66;5246362;28;20030;-65
2022/03/31 08:00:57;;;;;;;10.95;7.50;;;;;;;1.16;100.00;99889.81;5245278;28;20033;-66
2022/03/31 08:03:28;;;;;;;10.20;7.15;;;;;;;1.12;100.00;99888.28;5244847;28;20037;-65
2022/03/31 08:06:00;;;;;;;10.23;7.10;;;;;;;1.10;100.00;99893.59;5250689;28;20013;-65
2022/03/31 08:08:31;;;;;;;9.02;6.75;;;;;;;1.15;100.00;99883.72;5245714;28;20037;-65
2022/03/31 08:11:02;;;;;;;7.65;5.97;;;;;;;1.22;100.00;99881.59;5251787;28;20155;-65
2022/03/31 08:13:34;;;;;;;8.95;6.47;;;;;;;1.22;100.00;99878.97;5249871;28;20458;-65
2022/03/31 08:16:05;;;;;;;9.00;6.85;;;;;;;1.22;100.00;99867.59;5249027;28;20482;-65
2022/03/31 08:18:37;;;;;;;8.60;6.28;;;;;;;1.23;100.00;99879.78;5254730;28;20075;-65
2022/03/31 08:21:08;;;;;;;9.10;5.72;;;;;;;1.25;100.00;99878.81;5248642;28;20040;-66
2022/03/31 08:23:39;;;;;;;9.45;6.22;;;;;;;1.29;100.00;99868.97;5253364;28;20025;-65
2022/03/31 08:26:11;;;;;;;8.98;6.47;;;;;;;1.37;100.00;99872.88;5255682;28;20399;-65
2022/03/31 08:28:42;;;;;;;8.63;6.45;;;;;;;1.43;100.00;99876.13;5252389;28;20037;-66
2022/03/31 08:31:13;;;;;;;8.18;6.07;;;;;;;1.39;100.00;99878.06;5246949;28;20496;-65
2022/03/31 08:33:45;;;;;;;10.00;6.50;;;;;;;1.45;100.00;99877.72;5246636;28;20483;-65
2022/03/31 08:36:16;;;;;;;9.05;6.53;;;;;;;1.53;100.00;99878.16;5246703;28;20064;-65
2022/03/31 08:38:47;;;;;;;10.18;6.93;;;;;;;1.60;100.00;99880.47;5249617;28;20032;-65
2022/03/31 08:41:23;;;;;;;9.27;7.05;;;;;;;1.52;100.00;99879.09;5249291;28;20079;-66
2022/03/31 08:43:56;;;;;;;10.20;7.72;;;;;;;1.62;100.00;99878.59;5246339;28;20033;-65
2022/03/31 08:46:30;;;;;;;9.75;7.10;;;;;;;1.66;100.00;99893.25;5246033;28;20052;-65
2022/03/31 08:49:02;;;;;;;9.55;7.40;;;;;;;1.62;100.00;99883.84;5240920;28;20112;-65
2022/03/31 08:51:34;;;;;;;9.90;6.85;;;;;;;1.59;100.00;99887.47;5251530;28;20056;-65
2022/03/31 08:54:05;;;;;;;8.57;6.05;;;;;;;1.54;100.00;99886.91;5253776;28;20039;-66
2022/03/31 08:56:39;;;;;;;8.15;6.30;;;;;;;1.64;100.00;99884.59;5249194;28;20499;-65
2022/03/31 08:59:12;;;;;;;9.77;6.80;;;;;;;1.69;100.00;99888.69;5253359;28;20047;-65
2022/03/31 09:01:43;;;;;;;10.90;7.07;;;;;;;1.77;100.00;99888.25;5248214;28;20110;-66
2022/03/31 09:04:24;;;;;;;8.07;6.60;;;;;;;1.82;100.00;99890.63;5245012;28;20032;-65
2022/03/31 09:07:02;;;;;;;8.63;6.25;;;;;;;1.87;100.00;99891.22;5252968;28;20061;-65
2022/03/31 09:09:45;;;;;;;9.48;6.93;;;;;;;1.95;100.00;99902.16;5246737;28;20017;-65
2022/03/31 09:12:16;;;;;;;10.40;7.10;;;;;;;1.94;100.00;99897.84;5250815;28;20495;-65
2022/03/31 09:14:47;;;;;;;9.63;7.45;;;;;;;2.05;100.00;99897.22;5246227;28;20030;-65
2022/03/31 09:17:19;;;;;;;10.93;7.47;;;;;;;2.11;100.00;99894.25;5254755;28;20055;-66
2022/03/31 09:19:57;;;;;;;10.48;7.32;;;;;;;2.13;100.00;99890.59;5241597;28;20049;-66
2022/03/31 09:22:28;;;;;;;11.40;8.30;;;;;;;2.19;100.00;99892.03;5252867;28;20035;-65
2022/03/31 09:25:01;;;;;;;9.27;6.68;;;;;;;2.17;100.00;99901.81;5248620;28;20028;-65
2022/03/31 09:27:32;;;;;;;9.15;6.20;;;;;;;2.12;100.00;99894.16;5249747;28;20032;-65
2022/03/31 09:30:05;;;;;;;8.38;6.20;;;;;;;2.13;100.00;99895.03;5245968;28;20640;-66
2022/03/31 09:32:49;;;;;;;7.68;5.97;;;;;;;2.18;100.00;99900.00;5252630;28;20139;-66
2022/03/31 09:35:23;;;;;;;8.52;5.88;;;;;;;2.12;100.00;99901.22;5245824;28;20029;-66
2022/03/31 09:37:55;;;;;;;8.77;6.40;;;;;;;2.18;100.00;99905.28;5246832;28;20036;-65
2022/03/31 09:40:35;;;;;;;8.82;6.78;;;;;;;2.25;100.00;99901.38;5252079;28;20341;-65
2022/03/31 09:43:06;;;;;;;10.50;6.93;;;;;;;2.25;100.00;99904.00;5251902;28;20503;-65
2022/03/31 09:45:39;;;;;;;9.88;7.15;;;;;;;2.31;100.00;99901.00;5251811;28;20204;-66
2022/03/31 09:48:23;;;;;;;10.82;7.00;;;;;;;2.31;100.00;99893.13;5248869;28;20020;-65
2022/03/31 09:50:54;;;;;;;11.43;7.60;;;;;;;2.46;100.00;99902.75;5247092;28;20153;-65
2022/03/31 09:53:27;;;;;;;10.25;7.13;;;;;;;2.32;100.00;99900.06;5250147;28;20431;-65
2022/03/31 09:56:00;;;;;;;9.43;6.50;;;;;;;2.30;100.00;99899.31;5245588;28;20530;-65
2022/03/31 09:58:34;;;;;;;8.65;5.60;;;;;;;2.28;100.00;99894.16;5240806;28;20033;-65
2022/03/31 10:01:06;;;;;;;7.30;5.63;;;;;;;2.19;100.00;99899.06;5243300;28;20070;-65
2022/03/31 10:03:41;;;;;;;10.23;5.97;;;;;;;2.25;100.00;99896.09;5242407;28;20084;-66
2022/03/31 10:06:13;;;;;;;8.88;6.50;;;;;;;2.34;100.00;99892.94;5242015;28;20021;-65
2022/03/31 10:08:45;;;;;;;10.27;6.40;;;;;;;2.28;100.00;99890.66;5247932;28;20032;-65
2022/03/31 10:11:19;;;;;;;7.78;6.03;;;;;;;2.36;100.00;99888.44;5245672;28;20020;-65
2022/03/31 10:14:13;;;;;;;8.90;6.30;;;;;;;2.50;100.00;99892.91;5260120;28;20055;-66
2022/03/31 10:16:58;;;;;;;10.10;6.35;;;;;;;2.51;100.00;99882.28;5240921;28;20582;-65
2022/03/31 10:19:35;;;;;;;8.38;6.20;;;;;;;2.62;100.00;99886.91;5253340;28;20040;-65
2022/03/31 10:25:14;;;;;;;7.20;5.22;;;;;;;2.60;100.00;99894.03;5251470;28;20044;-65
2022/03/31 10:27:49;;;;;;;7.50;5.50;;;;;;;2.58;100.00;99893.28;5246169;28;20108;-65
2022/03/31 10:30:23;;;;;;;7.07;5.03;;;;;;;2.60;100.00;99890.56;5250178;28;20028;-65
2022/03/31 10:33:03;;;;;;;7.43;5.18;;;;;;;2.64;100.00;99897.34;5248845;28;20057;-65
2022/03/31 10:35:42;;;;;;;7.72;6.10;;;;;;;2.66;100.00;99896.31;5247346;28;20048;-66
2022/03/31 10:38:20;;;;;;;8.07;5.85;;;;;;;2.63;100.00;99893.03;5246370;28;20053;-66
2022/03/31 10:40:59;;;;;;;7.47;5.55;;;;;;;2.60;100.00;99887.94;5247638;28;20043;-65
2022/03/31 10:43:32;;;;;;;7.78;5.32;;;;;;;2.60;100.00;99888.78;5247947;28;20025;-65
2022/03/31 10:46:17;;;;;;;7.18;5.15;;;;;;;2.57;100.00;99885.47;5249768;28;20506;-65
2022/03/31 10:48:53;;;;;;;7.82;5.40;;;;;;;2.61;100.00;99893.13;5243106;28;20025;-65
2022/03/31 10:51:36;;;;;;;9.40;6.57;;;;;;;2.71;100.00;99888.16;5247886;28;20033;-66
2022/03/31 10:54:21;;;;;;;8.55;6.07;;;;;;;2.82;100.00;99880.47;5249082;28;20035;-66
2022/03/31 10:57:06;;;;;;;7.78;5.50;;;;;;;2.93;100.00;99883.31;5252514;28;20032;-66
2022/03/31 10:59:39;;;;;;;7.45;5.35;;;;;;;2.96;100.00;99882.25;5244465;28;20029;-65
2022/03/31 11:02:14;;;;;;;7.85;5.95;;;;;;;3.10;100.00;99881.41;5244097;28;20032;-65
2022/03/31 11:04:47;;;;;;;7.78;5.10;;;;;;;2.94;100.00;99878.88;5247139;28;20033;-65
2022/03/31 11:07:20;;;;;;;7.32;5.40;;;;;;;2.92;100.00;99870.22;5248081;28;20029;-65
2022/03/31 11:10:13;;;;;;;7.17;5.63;;;;;;;2.84;100.00;99875.94;5250202;28;20139;-65
2022/03/31 11:12:44;;;;;;;7.20;5.55;;;;;;;2.85;100.00;99874.16;5249931;28;20028;-65
2022/03/31 11:15:16;;;;;;;8.25;5.57;;;;;;;3.01;100.00;99877.56;5248020;28;20428;-65
2022/03/31 11:17:48;;;;;;;8.00;5.50;;;;;;;2.94;100.00;99878.88;5249585;28;20471;-66
2022/03/31 11:20:21;;;;;;;6.38;5.35;;;;;;;2.94;100.00;99877.09;5244744;28;20617;-66
2022/03/31 11:22:56;;;;;;;6.63;5.45;;;;;;;3.08;100.00;99870.97;5244656;28;20044;-66
2022/03/31 11:25:27;;;;;;;7.00;5.35;;;;;;;3.11;100.00;99857.63;5251454;28;20144;-65
2022/03/31 11:28:09;;;;;;;7.57;6.22;;;;;;;3.28;100.00;99859.22;5245908;28;20105;-65
2022/03/31 11:30:43;;;;;;;7.30;6.32;;;;;;;3.37;100.00;99856.94;5245404;28;20047;-66
2022/03/31 11:33:15;;;;;;;7.85;6.13;;;;;;;3.41;100.00;99855.78;5251452;28;20021;-65
2022/03/31 11:35:51;;;;;;;7.32;6.05;;;;;;;3.42;100.00;99847.78;5247826;28;20057;-66
2022/03/31 11:38:22;;;;;;;7.32;6.00;;;;;;;3.39;100.00;99852.41;5249017;28;20433;-65
2022/03/31 11:40:55;;;;;;;7.68;5.82;;;;;;;3.31;100.00;99848.47;5242973;28;20036;-65
2022/03/31 11:43:27;;;;;;;7.47;5.40;;;;;;;3.28;100.00;99851.31;5248819;28;20686;-65
2022/03/31 11:45:59;;;;;;;6.90;5.60;;;;;;;3.30;100.00;99846.78;5248550;28;20438;-65
2022/03/31 11:48:40;;;;;;;7.45;5.97;;;;;;;3.31;100.00;99850.25;5248107;28;20037;-65
2022/03/31 11:51:13;;;;;;;7.00;5.97;;;;;;;3.31;100.00;99853.72;5247654;28;20810;-65
2022/03/31 11:53:47;;;;;;;7.82;6.00;;;;;;;3.21;100.00;99844.72;5250615;28;20133;-66
2022/03/31 11:56:22;;;;;;;6.88;6.07;;;;;;;3.26;100.00;99850.56;5253093;28;20060;-65
2022/03/31 11:58:57;;;;;;;8.00;6.28;;;;;;;3.27;100.00;99849.59;5252786;28;20140;-65
2022/03/31 12:01:47;;;;;;;7.43;5.70;;;;;;;3.30;100.00;99849.41;5254269;28;20422;-65
2022/03/31 12:04:24;;;;;;;6.50;5.50;;;;;;;3.28;100.00;99850.44;5247495;28;20033;-66